sensor_id;sensor_type;location;lat;lon;timestamp;P1;durP1;ratioP1;P2;durP2;ratioP2
45812;SDS011;31519;45.408;10.962;2024-02-16T00:02:15;93.50;;;49.40;;
45812;SDS011;31519;45.408;10.962;2024-02-16T00:04:44;98.03;;;49.20;;
45812;SDS011;31519;45.408;10.962;2024-02-16T00:07:12;93.75;;;48.53;;
45812;SDS011;31519;45.408;10.962;2024-02-16T00:09:40;95.72;;;50.60;;
45812;SDS011;31519;45.408;10.962;2024-02-16T00:12:10;92.07;;;51.65;;
45812;SDS011;31519;45.408;10.962;2024-02-16T00:14:39;101.25;;;52.53;;
45812;SDS011;31519;45.408;10.962;2024-02-16T00:17:07;89.00;;;49.90;;
45812;SDS011;31519;45.408;10.962;2024-02-16T00:19:38;91.72;;;50.92;;
45812;SDS011;31519;45.408;10.962;2024-02-16T00:22:06;93.60;;;48.42;;
45812;SDS011;31519;45.408;10.962;2024-02-16T00:24:38;96.43;;;47.50;;
45812;SDS011;31519;45.408;10.962;2024-02-16T00:27:06;94.35;;;49.25;;
45812;SDS011;31519;45.408;10.962;2024-02-16T00:29:34;94.22;;;46.47;;
45812;SDS011;31519;45.408;10.962;2024-02-16T00:32:02;96.07;;;47.65;;
45812;SDS011;31519;45.408;10.962;2024-02-16T00:34:31;91.72;;;47.40;;
45812;SDS011;31519;45.408;10.962;2024-02-16T00:37:09;85.47;;;45.47;;
45812;SDS011;31519;45.408;10.962;2024-02-16T00:39:39;96.70;;;46.08;;
45812;SDS011;31519;45.408;10.962;2024-02-16T00:42:10;81.07;;;43.60;;
45812;SDS011;31519;45.408;10.962;2024-02-16T00:44:39;89.43;;;44.15;;
45812;SDS011;31519;45.408;10.962;2024-02-16T00:47:07;87.20;;;44.63;;
45812;SDS011;31519;45.408;10.962;2024-02-16T00:49:38;86.65;;;45.40;;
45812;SDS011;31519;45.408;10.962;2024-02-16T00:52:06;89.95;;;46.97;;
45812;SDS011;31519;45.408;10.962;2024-02-16T00:54:36;99.45;;;48.65;;
45812;SDS011;31519;45.408;10.962;2024-02-16T00:57:05;104.30;;;51.53;;
45812;SDS011;31519;45.408;10.962;2024-02-16T00:59:33;99.28;;;49.10;;
45812;SDS011;31519;45.408;10.962;2024-02-16T01:02:01;101.22;;;48.15;;
45812;SDS011;31519;45.408;10.962;2024-02-16T01:04:30;91.47;;;48.63;;
45812;SDS011;31519;45.408;10.962;2024-02-16T01:06:58;88.10;;;49.95;;
45812;SDS011;31519;45.408;10.962;2024-02-16T01:09:27;101.55;;;48.33;;
45812;SDS011;31519;45.408;10.962;2024-02-16T01:11:55;87.15;;;48.17;;
45812;SDS011;31519;45.408;10.962;2024-02-16T01:14:24;97.18;;;49.17;;
45812;SDS011;31519;45.408;10.962;2024-02-16T01:16:53;103.97;;;53.33;;
45812;SDS011;31519;45.408;10.962;2024-02-16T01:19:21;91.60;;;47.10;;
45812;SDS011;31519;45.408;10.962;2024-02-16T01:21:50;93.35;;;46.75;;
45812;SDS011;31519;45.408;10.962;2024-02-16T01:24:21;97.55;;;48.05;;
45812;SDS011;31519;45.408;10.962;2024-02-16T01:26:49;88.18;;;46.72;;
45812;SDS011;31519;45.408;10.962;2024-02-16T01:29:18;85.07;;;46.00;;
45812;SDS011;31519;45.408;10.962;2024-02-16T01:31:46;89.60;;;48.00;;
45812;SDS011;31519;45.408;10.962;2024-02-16T01:34:15;88.35;;;45.35;;
45812;SDS011;31519;45.408;10.962;2024-02-16T01:36:45;87.80;;;46.10;;
45812;SDS011;31519;45.408;10.962;2024-02-16T01:39:13;91.78;;;45.47;;
45812;SDS011;31519;45.408;10.962;2024-02-16T01:41:41;87.82;;;48.05;;
45812;SDS011;31519;45.408;10.962;2024-02-16T01:44:10;99.78;;;48.47;;
45812;SDS011;31519;45.408;10.962;2024-02-16T01:46:38;103.40;;;48.97;;
45812;SDS011;31519;45.408;10.962;2024-02-16T01:49:07;94.60;;;49.03;;
45812;SDS011;31519;45.408;10.962;2024-02-16T01:51:35;91.60;;;47.95;;
45812;SDS011;31519;45.408;10.962;2024-02-16T01:54:05;87.78;;;48.40;;
45812;SDS011;31519;45.408;10.962;2024-02-16T01:56:33;97.53;;;49.22;;
45812;SDS011;31519;45.408;10.962;2024-02-16T01:59:02;96.32;;;48.50;;
45812;SDS011;31519;45.408;10.962;2024-02-16T02:01:30;98.28;;;49.75;;
45812;SDS011;31519;45.408;10.962;2024-02-16T02:03:58;86.40;;;46.78;;
45812;SDS011;31519;45.408;10.962;2024-02-16T02:06:27;86.00;;;47.13;;
45812;SDS011;31519;45.408;10.962;2024-02-16T02:08:55;81.18;;;43.60;;
45812;SDS011;31519;45.408;10.962;2024-02-16T02:11:24;84.70;;;45.22;;
45812;SDS011;31519;45.408;10.962;2024-02-16T02:13:52;83.47;;;43.95;;
45812;SDS011;31519;45.408;10.962;2024-02-16T02:16:20;82.57;;;46.05;;
45812;SDS011;31519;45.408;10.962;2024-02-16T02:18:50;99.45;;;45.05;;
45812;SDS011;31519;45.408;10.962;2024-02-16T02:21:18;90.45;;;42.78;;
45812;SDS011;31519;45.408;10.962;2024-02-16T02:23:47;79.00;;;40.65;;
45812;SDS011;31519;45.408;10.962;2024-02-16T02:26:15;86.65;;;41.10;;
45812;SDS011;31519;45.408;10.962;2024-02-16T02:28:45;72.80;;;38.50;;
45812;SDS011;31519;45.408;10.962;2024-02-16T02:31:13;79.93;;;41.78;;
45812;SDS011;31519;45.408;10.962;2024-02-16T02:33:41;74.30;;;39.00;;
45812;SDS011;31519;45.408;10.962;2024-02-16T02:36:10;79.15;;;39.53;;
45812;SDS011;31519;45.408;10.962;2024-02-16T02:38:38;85.32;;;39.42;;
45812;SDS011;31519;45.408;10.962;2024-02-16T02:41:07;80.93;;;38.13;;
45812;SDS011;31519;45.408;10.962;2024-02-16T02:43:35;70.38;;;35.83;;
45812;SDS011;31519;45.408;10.962;2024-02-16T02:46:03;74.72;;;38.38;;
45812;SDS011;31519;45.408;10.962;2024-02-16T02:48:32;73.88;;;36.00;;
45812;SDS011;31519;45.408;10.962;2024-02-16T02:51:00;83.32;;;36.63;;
45812;SDS011;31519;45.408;10.962;2024-02-16T02:53:29;75.68;;;36.75;;
45812;SDS011;31519;45.408;10.962;2024-02-16T02:55:57;82.78;;;37.28;;
45812;SDS011;31519;45.408;10.962;2024-02-16T02:58:26;72.97;;;35.28;;
45812;SDS011;31519;45.408;10.962;2024-02-16T03:00:54;71.47;;;36.63;;
45812;SDS011;31519;45.408;10.962;2024-02-16T03:03:23;73.60;;;36.00;;
45812;SDS011;31519;45.408;10.962;2024-02-16T03:05:52;76.65;;;38.45;;
45812;SDS011;31519;45.408;10.962;2024-02-16T03:08:20;69.80;;;34.13;;
45812;SDS011;31519;45.408;10.962;2024-02-16T03:10:48;81.65;;;37.58;;
45812;SDS011;31519;45.408;10.962;2024-02-16T03:13:17;73.82;;;36.63;;
45812;SDS011;31519;45.408;10.962;2024-02-16T03:15:46;65.40;;;34.67;;
45812;SDS011;31519;45.408;10.962;2024-02-16T03:18:15;70.57;;;35.53;;
45812;SDS011;31519;45.408;10.962;2024-02-16T03:20:43;71.68;;;35.08;;
45812;SDS011;31519;45.408;10.962;2024-02-16T03:23:14;78.50;;;33.75;;
45812;SDS011;31519;45.408;10.962;2024-02-16T03:25:42;71.82;;;36.55;;
45812;SDS011;31519;45.408;10.962;2024-02-16T03:28:11;74.55;;;35.13;;
45812;SDS011;31519;45.408;10.962;2024-02-16T03:30:41;74.38;;;36.20;;
45812;SDS011;31519;45.408;10.962;2024-02-16T03:33:10;74.88;;;36.92;;
45812;SDS011;31519;45.408;10.962;2024-02-16T03:35:39;75.70;;;37.63;;
45812;SDS011;31519;45.408;10.962;2024-02-16T03:38:10;73.93;;;35.88;;
45812;SDS011;31519;45.408;10.962;2024-02-16T03:40:38;90.38;;;36.85;;
45812;SDS011;31519;45.408;10.962;2024-02-16T03:43:06;76.80;;;35.22;;
45812;SDS011;31519;45.408;10.962;2024-02-16T03:45:34;78.43;;;37.47;;
45812;SDS011;31519;45.408;10.962;2024-02-16T03:48:03;73.60;;;36.13;;
45812;SDS011;31519;45.408;10.962;2024-02-16T03:50:32;73.43;;;36.60;;
45812;SDS011;31519;45.408;10.962;2024-02-16T03:53:00;76.25;;;37.95;;
45812;SDS011;31519;45.408;10.962;2024-02-16T03:55:29;79.20;;;37.60;;
45812;SDS011;31519;45.408;10.962;2024-02-16T03:57:59;82.00;;;36.60;;
45812;SDS011;31519;45.408;10.962;2024-02-16T04:00:27;75.88;;;38.20;;
45812;SDS011;31519;45.408;10.962;2024-02-16T04:02:56;74.22;;;38.85;;
45812;SDS011;31519;45.408;10.962;2024-02-16T04:05:25;76.75;;;38.22;;
45812;SDS011;31519;45.408;10.962;2024-02-16T04:07:59;77.30;;;37.28;;
45812;SDS011;31519;45.408;10.962;2024-02-16T04:13:02;72.03;;;34.90;;
45812;SDS011;31519;45.408;10.962;2024-02-16T04:15:30;84.00;;;37.33;;
45812;SDS011;31519;45.408;10.962;2024-02-16T04:17:59;81.50;;;40.47;;
45812;SDS011;31519;45.408;10.962;2024-02-16T04:20:28;92.28;;;44.47;;
45812;SDS011;31519;45.408;10.962;2024-02-16T04:22:56;77.28;;;40.22;;
45812;SDS011;31519;45.408;10.962;2024-02-16T04:25:24;92.32;;;40.65;;
45812;SDS011;31519;45.408;10.962;2024-02-16T04:27:53;79.88;;;42.13;;
45812;SDS011;31519;45.408;10.962;2024-02-16T04:30:21;82.35;;;38.90;;
45812;SDS011;31519;45.408;10.962;2024-02-16T04:32:50;76.68;;;39.30;;
45812;SDS011;31519;45.408;10.962;2024-02-16T04:35:18;86.63;;;40.95;;
45812;SDS011;31519;45.408;10.962;2024-02-16T04:37:47;78.07;;;40.67;;
45812;SDS011;31519;45.408;10.962;2024-02-16T04:40:15;84.95;;;38.45;;
45812;SDS011;31519;45.408;10.962;2024-02-16T04:42:43;79.65;;;39.15;;
45812;SDS011;31519;45.408;10.962;2024-02-16T04:45:12;76.85;;;39.92;;
45812;SDS011;31519;45.408;10.962;2024-02-16T04:47:41;88.00;;;38.97;;
45812;SDS011;31519;45.408;10.962;2024-02-16T04:50:09;79.53;;;41.17;;
45812;SDS011;31519;45.408;10.962;2024-02-16T04:52:38;83.25;;;40.13;;
45812;SDS011;31519;45.408;10.962;2024-02-16T04:55:08;84.85;;;42.13;;
45812;SDS011;31519;45.408;10.962;2024-02-16T04:57:36;93.60;;;40.70;;
45812;SDS011;31519;45.408;10.962;2024-02-16T05:00:05;81.18;;;39.83;;
45812;SDS011;31519;45.408;10.962;2024-02-16T05:02:34;78.57;;;42.70;;
45812;SDS011;31519;45.408;10.962;2024-02-16T05:05:02;78.38;;;40.72;;
45812;SDS011;31519;45.408;10.962;2024-02-16T05:07:32;82.88;;;40.97;;
45812;SDS011;31519;45.408;10.962;2024-02-16T05:10:01;82.43;;;39.85;;
45812;SDS011;31519;45.408;10.962;2024-02-16T05:12:29;88.75;;;42.30;;
45812;SDS011;31519;45.408;10.962;2024-02-16T05:14:57;94.05;;;42.00;;
45812;SDS011;31519;45.408;10.962;2024-02-16T05:17:26;85.82;;;43.10;;
45812;SDS011;31519;45.408;10.962;2024-02-16T05:19:54;84.63;;;41.80;;
45812;SDS011;31519;45.408;10.962;2024-02-16T05:22:23;89.43;;;42.03;;
45812;SDS011;31519;45.408;10.962;2024-02-16T05:24:51;89.32;;;43.60;;
45812;SDS011;31519;45.408;10.962;2024-02-16T05:27:19;83.40;;;40.58;;
45812;SDS011;31519;45.408;10.962;2024-02-16T05:29:47;85.68;;;42.58;;
45812;SDS011;31519;45.408;10.962;2024-02-16T05:32:16;98.50;;;45.40;;
45812;SDS011;31519;45.408;10.962;2024-02-16T05:34:44;86.63;;;44.17;;
45812;SDS011;31519;45.408;10.962;2024-02-16T05:37:12;93.05;;;45.25;;
45812;SDS011;31519;45.408;10.962;2024-02-16T05:39:43;89.43;;;43.88;;
45812;SDS011;31519;45.408;10.962;2024-02-16T05:42:22;84.03;;;43.78;;
45812;SDS011;31519;45.408;10.962;2024-02-16T05:44:51;92.15;;;43.60;;
45812;SDS011;31519;45.408;10.962;2024-02-16T05:47:20;87.28;;;41.75;;
45812;SDS011;31519;45.408;10.962;2024-02-16T05:49:48;95.45;;;43.47;;
45812;SDS011;31519;45.408;10.962;2024-02-16T05:52:16;79.18;;;41.85;;
45812;SDS011;31519;45.408;10.962;2024-02-16T05:54:45;80.57;;;43.38;;
45812;SDS011;31519;45.408;10.962;2024-02-16T05:57:16;89.35;;;44.83;;
45812;SDS011;31519;45.408;10.962;2024-02-16T05:59:45;80.57;;;41.85;;
45812;SDS011;31519;45.408;10.962;2024-02-16T06:02:16;84.40;;;44.15;;
45812;SDS011;31519;45.408;10.962;2024-02-16T06:04:45;83.07;;;42.75;;
45812;SDS011;31519;45.408;10.962;2024-02-16T06:07:13;82.93;;;42.63;;
45812;SDS011;31519;45.408;10.962;2024-02-16T06:09:42;76.47;;;42.92;;
45812;SDS011;31519;45.408;10.962;2024-02-16T06:12:10;89.95;;;42.13;;
45812;SDS011;31519;45.408;10.962;2024-02-16T06:14:40;99.72;;;46.85;;
45812;SDS011;31519;45.408;10.962;2024-02-16T06:17:09;87.47;;;43.05;;
45812;SDS011;31519;45.408;10.962;2024-02-16T06:19:37;87.43;;;43.30;;
45812;SDS011;31519;45.408;10.962;2024-02-16T06:22:05;73.88;;;41.53;;
45812;SDS011;31519;45.408;10.962;2024-02-16T06:24:35;89.22;;;42.30;;
45812;SDS011;31519;45.408;10.962;2024-02-16T06:27:04;86.75;;;44.40;;
45812;SDS011;31519;45.408;10.962;2024-02-16T06:29:32;89.20;;;45.40;;
45812;SDS011;31519;45.408;10.962;2024-02-16T06:32:01;107.30;;;50.55;;
45812;SDS011;31519;45.408;10.962;2024-02-16T06:34:32;104.03;;;47.03;;
45812;SDS011;31519;45.408;10.962;2024-02-16T06:37:01;105.35;;;50.50;;
45812;SDS011;31519;45.408;10.962;2024-02-16T06:39:29;90.47;;;50.03;;
45812;SDS011;31519;45.408;10.962;2024-02-16T06:41:59;94.38;;;50.50;;
45812;SDS011;31519;45.408;10.962;2024-02-16T06:44:28;100.28;;;51.08;;
45812;SDS011;31519;45.408;10.962;2024-02-16T06:46:57;114.40;;;51.25;;
45812;SDS011;31519;45.408;10.962;2024-02-16T06:49:25;101.45;;;49.35;;
45812;SDS011;31519;45.408;10.962;2024-02-16T06:51:53;96.45;;;49.63;;
45812;SDS011;31519;45.408;10.962;2024-02-16T06:54:23;109.43;;;49.13;;
45812;SDS011;31519;45.408;10.962;2024-02-16T06:56:54;97.75;;;49.25;;
45812;SDS011;31519;45.408;10.962;2024-02-16T06:59:23;100.60;;;51.45;;
45812;SDS011;31519;45.408;10.962;2024-02-16T07:01:51;98.30;;;47.88;;
45812;SDS011;31519;45.408;10.962;2024-02-16T07:04:19;91.82;;;48.25;;
45812;SDS011;31519;45.408;10.962;2024-02-16T07:06:47;93.28;;;48.90;;
45812;SDS011;31519;45.408;10.962;2024-02-16T07:09:16;98.70;;;50.80;;
45812;SDS011;31519;45.408;10.962;2024-02-16T07:11:44;96.13;;;51.88;;
45812;SDS011;31519;45.408;10.962;2024-02-16T07:14:18;96.78;;;48.45;;
45812;SDS011;31519;45.408;10.962;2024-02-16T07:16:46;93.13;;;47.10;;
45812;SDS011;31519;45.408;10.962;2024-02-16T07:19:15;106.57;;;48.78;;
45812;SDS011;31519;45.408;10.962;2024-02-16T07:21:43;87.07;;;47.58;;
45812;SDS011;31519;45.408;10.962;2024-02-16T07:24:12;94.10;;;46.85;;
45812;SDS011;31519;45.408;10.962;2024-02-16T07:26:41;93.15;;;47.97;;
45812;SDS011;31519;45.408;10.962;2024-02-16T07:29:09;87.93;;;46.33;;
45812;SDS011;31519;45.408;10.962;2024-02-16T07:31:41;90.70;;;47.67;;
45812;SDS011;31519;45.408;10.962;2024-02-16T07:34:09;100.03;;;48.13;;
45812;SDS011;31519;45.408;10.962;2024-02-16T07:36:39;88.80;;;45.20;;
45812;SDS011;31519;45.408;10.962;2024-02-16T07:39:08;94.43;;;46.72;;
45812;SDS011;31519;45.408;10.962;2024-02-16T07:41:40;107.05;;;49.83;;
45812;SDS011;31519;45.408;10.962;2024-02-16T07:44:08;94.15;;;48.28;;
45812;SDS011;31519;45.408;10.962;2024-02-16T07:46:40;92.75;;;48.97;;
45812;SDS011;31519;45.408;10.962;2024-02-16T07:49:09;97.50;;;47.92;;
45812;SDS011;31519;45.408;10.962;2024-02-16T07:51:39;101.15;;;50.38;;
45812;SDS011;31519;45.408;10.962;2024-02-16T07:54:07;103.25;;;48.83;;
45812;SDS011;31519;45.408;10.962;2024-02-16T07:56:36;103.28;;;48.65;;
45812;SDS011;31519;45.408;10.962;2024-02-16T07:59:04;105.97;;;51.88;;
45812;SDS011;31519;45.408;10.962;2024-02-16T08:01:33;93.30;;;48.13;;
45812;SDS011;31519;45.408;10.962;2024-02-16T08:04:01;86.45;;;46.72;;
45812;SDS011;31519;45.408;10.962;2024-02-16T08:06:33;97.18;;;47.33;;
45812;SDS011;31519;45.408;10.962;2024-02-16T08:09:01;93.53;;;46.72;;
45812;SDS011;31519;45.408;10.962;2024-02-16T08:11:30;87.88;;;46.50;;
45812;SDS011;31519;45.408;10.962;2024-02-16T08:13:58;95.10;;;44.75;;
45812;SDS011;31519;45.408;10.962;2024-02-16T08:16:28;91.28;;;46.70;;
45812;SDS011;31519;45.408;10.962;2024-02-16T08:18:57;97.80;;;43.63;;
45812;SDS011;31519;45.408;10.962;2024-02-16T08:21:26;92.13;;;43.38;;
45812;SDS011;31519;45.408;10.962;2024-02-16T08:23:54;89.32;;;44.65;;
45812;SDS011;31519;45.408;10.962;2024-02-16T08:26:23;90.82;;;44.97;;
45812;SDS011;31519;45.408;10.962;2024-02-16T08:28:51;93.88;;;43.75;;
45812;SDS011;31519;45.408;10.962;2024-02-16T08:31:19;74.15;;;43.38;;
45812;SDS011;31519;45.408;10.962;2024-02-16T08:33:48;81.75;;;43.72;;
45812;SDS011;31519;45.408;10.962;2024-02-16T08:36:16;86.90;;;44.92;;
45812;SDS011;31519;45.408;10.962;2024-02-16T08:38:45;92.22;;;44.67;;
45812;SDS011;31519;45.408;10.962;2024-02-16T08:41:13;92.70;;;48.78;;
45812;SDS011;31519;45.408;10.962;2024-02-16T08:43:41;92.65;;;47.60;;
45812;SDS011;31519;45.408;10.962;2024-02-16T08:46:10;85.57;;;50.85;;
45812;SDS011;31519;45.408;10.962;2024-02-16T08:48:38;87.00;;;44.28;;
45812;SDS011;31519;45.408;10.962;2024-02-16T08:51:07;92.03;;;47.67;;
45812;SDS011;31519;45.408;10.962;2024-02-16T08:53:36;86.05;;;45.55;;
45812;SDS011;31519;45.408;10.962;2024-02-16T08:56:08;94.45;;;48.13;;
45812;SDS011;31519;45.408;10.962;2024-02-16T08:58:38;90.70;;;49.28;;
45812;SDS011;31519;45.408;10.962;2024-02-16T09:01:06;86.68;;;47.22;;
45812;SDS011;31519;45.408;10.962;2024-02-16T09:03:35;90.32;;;45.22;;
45812;SDS011;31519;45.408;10.962;2024-02-16T09:06:06;77.20;;;43.97;;
45812;SDS011;31519;45.408;10.962;2024-02-16T09:08:34;71.00;;;40.00;;
45812;SDS011;31519;45.408;10.962;2024-02-16T09:11:03;73.32;;;40.85;;
45812;SDS011;31519;45.408;10.962;2024-02-16T09:13:33;67.63;;;39.47;;
45812;SDS011;31519;45.408;10.962;2024-02-16T09:16:08;68.07;;;40.35;;
45812;SDS011;31519;45.408;10.962;2024-02-16T09:18:37;80.07;;;43.38;;
45812;SDS011;31519;45.408;10.962;2024-02-16T09:21:06;90.47;;;43.55;;
45812;SDS011;31519;45.408;10.962;2024-02-16T09:23:36;87.68;;;43.40;;
45812;SDS011;31519;45.408;10.962;2024-02-16T09:26:05;98.88;;;45.78;;
45812;SDS011;31519;45.408;10.962;2024-02-16T09:28:33;85.38;;;45.13;;
45812;SDS011;31519;45.408;10.962;2024-02-16T09:31:01;76.57;;;41.88;;
45812;SDS011;31519;45.408;10.962;2024-02-16T09:33:30;94.75;;;45.67;;
45812;SDS011;31519;45.408;10.962;2024-02-16T09:35:59;84.32;;;42.42;;
45812;SDS011;31519;45.408;10.962;2024-02-16T09:38:27;83.15;;;44.17;;
45812;SDS011;31519;45.408;10.962;2024-02-16T09:40:55;85.90;;;44.03;;
45812;SDS011;31519;45.408;10.962;2024-02-16T09:43:24;76.43;;;45.40;;
45812;SDS011;31519;45.408;10.962;2024-02-16T09:45:57;81.80;;;45.25;;
45812;SDS011;31519;45.408;10.962;2024-02-16T09:48:30;84.88;;;44.53;;
45812;SDS011;31519;45.408;10.962;2024-02-16T09:51:00;72.72;;;42.53;;
45812;SDS011;31519;45.408;10.962;2024-02-16T09:53:28;76.88;;;43.72;;
45812;SDS011;31519;45.408;10.962;2024-02-16T09:55:57;78.90;;;43.72;;
45812;SDS011;31519;45.408;10.962;2024-02-16T09:58:25;73.68;;;43.10;;
45812;SDS011;31519;45.408;10.962;2024-02-16T10:00:54;78.50;;;43.30;;
45812;SDS011;31519;45.408;10.962;2024-02-16T10:03:28;78.57;;;44.58;;
45812;SDS011;31519;45.408;10.962;2024-02-16T10:06:08;81.15;;;45.63;;
45812;SDS011;31519;45.408;10.962;2024-02-16T10:08:49;79.32;;;44.25;;
45812;SDS011;31519;45.408;10.962;2024-02-16T10:11:20;91.53;;;47.63;;
45812;SDS011;31519;45.408;10.962;2024-02-16T10:16:24;91.50;;;49.90;;
45812;SDS011;31519;45.408;10.962;2024-02-16T10:18:54;84.80;;;47.20;;
45812;SDS011;31519;45.408;10.962;2024-02-16T10:21:33;89.45;;;49.92;;
45812;SDS011;31519;45.408;10.962;2024-02-16T10:24:07;88.05;;;47.67;;
45812;SDS011;31519;45.408;10.962;2024-02-16T10:26:37;80.53;;;47.30;;
45812;SDS011;31519;45.408;10.962;2024-02-16T10:29:08;88.10;;;47.50;;
45812;SDS011;31519;45.408;10.962;2024-02-16T10:31:39;90.22;;;47.65;;
45812;SDS011;31519;45.408;10.962;2024-02-16T10:34:07;79.32;;;45.72;;
45812;SDS011;31519;45.408;10.962;2024-02-16T10:36:38;82.95;;;47.78;;
45812;SDS011;31519;45.408;10.962;2024-02-16T10:39:09;94.18;;;46.28;;
45812;SDS011;31519;45.408;10.962;2024-02-16T10:41:40;83.28;;;46.25;;
45812;SDS011;31519;45.408;10.962;2024-02-16T10:44:09;75.03;;;45.30;;
45812;SDS011;31519;45.408;10.962;2024-02-16T10:46:38;90.18;;;46.70;;
45812;SDS011;31519;45.408;10.962;2024-02-16T10:49:07;85.57;;;45.78;;
45812;SDS011;31519;45.408;10.962;2024-02-16T10:51:39;89.93;;;49.30;;
45812;SDS011;31519;45.408;10.962;2024-02-16T10:54:12;76.40;;;47.08;;
45812;SDS011;31519;45.408;10.962;2024-02-16T10:59:13;76.50;;;45.90;;
45812;SDS011;31519;45.408;10.962;2024-02-16T11:01:45;84.57;;;45.72;;
45812;SDS011;31519;45.408;10.962;2024-02-16T11:04:14;83.55;;;44.10;;
45812;SDS011;31519;45.408;10.962;2024-02-16T11:06:54;88.70;;;45.53;;
45812;SDS011;31519;45.408;10.962;2024-02-16T11:09:34;73.75;;;45.55;;
45812;SDS011;31519;45.408;10.962;2024-02-16T11:12:04;84.70;;;44.03;;
45812;SDS011;31519;45.408;10.962;2024-02-16T11:17:15;79.90;;;43.85;;
45812;SDS011;31519;45.408;10.962;2024-02-16T11:19:48;77.18;;;43.20;;
45812;SDS011;31519;45.408;10.962;2024-02-16T11:22:18;83.88;;;45.08;;
45812;SDS011;31519;45.408;10.962;2024-02-16T11:24:48;75.85;;;42.25;;
45812;SDS011;31519;45.408;10.962;2024-02-16T11:27:24;75.93;;;43.45;;
45812;SDS011;31519;45.408;10.962;2024-02-16T11:29:53;75.53;;;42.80;;
45812;SDS011;31519;45.408;10.962;2024-02-16T11:32:23;79.20;;;44.72;;
45812;SDS011;31519;45.408;10.962;2024-02-16T11:34:52;79.55;;;44.78;;
45812;SDS011;31519;45.408;10.962;2024-02-16T11:37:21;77.38;;;42.97;;
45812;SDS011;31519;45.408;10.962;2024-02-16T11:39:54;77.43;;;43.17;;
45812;SDS011;31519;45.408;10.962;2024-02-16T11:42:24;74.93;;;42.67;;
45812;SDS011;31519;45.408;10.962;2024-02-16T11:44:55;82.50;;;44.47;;
45812;SDS011;31519;45.408;10.962;2024-02-16T11:47:25;81.85;;;44.90;;
45812;SDS011;31519;45.408;10.962;2024-02-16T11:50:03;74.97;;;42.53;;
45812;SDS011;31519;45.408;10.962;2024-02-16T11:52:33;74.03;;;42.25;;
45812;SDS011;31519;45.408;10.962;2024-02-16T11:55:03;73.68;;;43.42;;
45812;SDS011;31519;45.408;10.962;2024-02-16T11:57:32;75.10;;;42.78;;
45812;SDS011;31519;45.408;10.962;2024-02-16T12:00:02;77.10;;;42.80;;
45812;SDS011;31519;45.408;10.962;2024-02-16T12:05:07;72.15;;;41.13;;
45812;SDS011;31519;45.408;10.962;2024-02-16T12:07:39;75.93;;;42.08;;
45812;SDS011;31519;45.408;10.962;2024-02-16T12:10:08;78.70;;;44.10;;
45812;SDS011;31519;45.408;10.962;2024-02-16T12:12:39;77.75;;;42.78;;
45812;SDS011;31519;45.408;10.962;2024-02-16T12:15:10;80.82;;;42.45;;
45812;SDS011;31519;45.408;10.962;2024-02-16T12:17:41;87.57;;;44.10;;
45812;SDS011;31519;45.408;10.962;2024-02-16T12:20:12;75.55;;;40.72;;
45812;SDS011;31519;45.408;10.962;2024-02-16T12:22:44;87.45;;;42.10;;
45812;SDS011;31519;45.408;10.962;2024-02-16T12:25:12;66.90;;;38.28;;
45812;SDS011;31519;45.408;10.962;2024-02-16T12:27:41;73.28;;;40.05;;
45812;SDS011;31519;45.408;10.962;2024-02-16T12:30:09;74.20;;;41.15;;
45812;SDS011;31519;45.408;10.962;2024-02-16T12:32:39;71.53;;;41.63;;
45812;SDS011;31519;45.408;10.962;2024-02-16T12:35:07;68.05;;;39.25;;
45812;SDS011;31519;45.408;10.962;2024-02-16T12:37:36;74.00;;;38.40;;
45812;SDS011;31519;45.408;10.962;2024-02-16T12:40:05;75.25;;;40.47;;
45812;SDS011;31519;45.408;10.962;2024-02-16T12:42:35;81.10;;;42.92;;
45812;SDS011;31519;45.408;10.962;2024-02-16T12:45:03;84.85;;;41.25;;
45812;SDS011;31519;45.408;10.962;2024-02-16T12:47:32;77.05;;;45.78;;
45812;SDS011;31519;45.408;10.962;2024-02-16T12:50:01;82.80;;;46.65;;
45812;SDS011;31519;45.408;10.962;2024-02-16T12:52:29;79.53;;;45.90;;
45812;SDS011;31519;45.408;10.962;2024-02-16T12:55:07;81.70;;;43.30;;
45812;SDS011;31519;45.408;10.962;2024-02-16T12:57:38;82.47;;;44.92;;
45812;SDS011;31519;45.408;10.962;2024-02-16T13:00:06;71.13;;;41.05;;
45812;SDS011;31519;45.408;10.962;2024-02-16T13:02:35;69.57;;;40.17;;
45812;SDS011;31519;45.408;10.962;2024-02-16T13:05:04;75.68;;;41.58;;
45812;SDS011;31519;45.408;10.962;2024-02-16T13:07:33;68.18;;;40.35;;
45812;SDS011;31519;45.408;10.962;2024-02-16T13:10:01;75.18;;;40.63;;
45812;SDS011;31519;45.408;10.962;2024-02-16T13:12:30;73.15;;;39.65;;
45812;SDS011;31519;45.408;10.962;2024-02-16T13:14:59;72.97;;;39.85;;
45812;SDS011;31519;45.408;10.962;2024-02-16T13:17:45;70.55;;;40.08;;
45812;SDS011;31519;45.408;10.962;2024-02-16T13:20:13;75.38;;;41.13;;
45812;SDS011;31519;45.408;10.962;2024-02-16T13:22:42;77.05;;;40.70;;
45812;SDS011;31519;45.408;10.962;2024-02-16T13:25:10;73.25;;;41.35;;
45812;SDS011;31519;45.408;10.962;2024-02-16T13:27:38;74.18;;;40.80;;
45812;SDS011;31519;45.408;10.962;2024-02-16T13:30:11;77.93;;;40.80;;
45812;SDS011;31519;45.408;10.962;2024-02-16T13:32:40;75.80;;;40.25;;
45812;SDS011;31519;45.408;10.962;2024-02-16T13:35:08;70.38;;;40.53;;
45812;SDS011;31519;45.408;10.962;2024-02-16T13:37:37;68.43;;;39.60;;
45812;SDS011;31519;45.408;10.962;2024-02-16T13:40:05;69.28;;;39.50;;
45812;SDS011;31519;45.408;10.962;2024-02-16T13:42:39;76.60;;;39.83;;
45812;SDS011;31519;45.408;10.962;2024-02-16T13:45:08;67.55;;;40.63;;
45812;SDS011;31519;45.408;10.962;2024-02-16T13:47:37;71.15;;;39.65;;
45812;SDS011;31519;45.408;10.962;2024-02-16T13:50:07;71.30;;;40.72;;
45812;SDS011;31519;45.408;10.962;2024-02-16T13:52:36;64.88;;;38.50;;
45812;SDS011;31519;45.408;10.962;2024-02-16T13:55:04;71.88;;;40.90;;
45812;SDS011;31519;45.408;10.962;2024-02-16T13:57:34;71.72;;;39.95;;
45812;SDS011;31519;45.408;10.962;2024-02-16T14:00:03;76.13;;;39.72;;
45812;SDS011;31519;45.408;10.962;2024-02-16T14:02:39;72.35;;;41.10;;
45812;SDS011;31519;45.408;10.962;2024-02-16T14:05:07;79.75;;;39.53;;
45812;SDS011;31519;45.408;10.962;2024-02-16T14:07:35;67.20;;;36.75;;
45812;SDS011;31519;45.408;10.962;2024-02-16T14:10:17;69.25;;;39.28;;
45812;SDS011;31519;45.408;10.962;2024-02-16T14:12:46;62.83;;;36.40;;
45812;SDS011;31519;45.408;10.962;2024-02-16T14:15:15;68.03;;;37.17;;
45812;SDS011;31519;45.408;10.962;2024-02-16T14:17:44;66.25;;;35.97;;
45812;SDS011;31519;45.408;10.962;2024-02-16T14:20:12;59.17;;;34.28;;
45812;SDS011;31519;45.408;10.962;2024-02-16T14:22:41;65.13;;;37.95;;
45812;SDS011;31519;45.408;10.962;2024-02-16T14:25:10;71.97;;;38.08;;
45812;SDS011;31519;45.408;10.962;2024-02-16T14:27:41;62.72;;;36.25;;
45812;SDS011;31519;45.408;10.962;2024-02-16T14:30:10;65.55;;;36.85;;
45812;SDS011;31519;45.408;10.962;2024-02-16T14:32:40;68.88;;;36.97;;
45812;SDS011;31519;45.408;10.962;2024-02-16T14:35:09;79.85;;;37.58;;